createdAt,value
2022-11-15T00:04:37.554Z,22.50
2022-11-15T00:09:43.397Z,25.37
2022-11-15T00:14:49.489Z,21.70
2022-11-15T00:19:51.866Z,25.17
2022-11-15T00:24:53.751Z,22.80
2022-11-15T00:29:56.796Z,25.70
2022-11-15T00:34:59.167Z,20.23
2022-11-15T00:40:00.903Z,27.03
2022-11-15T00:45:04.759Z,28.37
2022-11-15T00:50:12.958Z,24.67
2022-11-15T00:55:18.563Z,23.60
2022-11-15T01:00:21.704Z,21.07
2022-11-15T01:05:24.066Z,22.20
2022-11-15T01:10:26.165Z,21.53
2022-11-15T01:15:29.612Z,19.37
2022-11-15T01:20:31.739Z,20.27
2022-11-15T01:25:33.875Z,20.80
2022-11-15T01:30:38.446Z,23.23
2022-11-15T01:35:40.967Z,21.70
2022-11-15T01:40:43.114Z,21.73
2022-11-15T01:45:50.163Z,24.80
2022-11-15T01:50:52.387Z,25.77
2022-11-15T01:55:55.118Z,23.27
2022-11-15T02:00:58.238Z,24.37
2022-11-15T02:06:00.724Z,19.47
2022-11-15T02:11:05.436Z,23.43
2022-11-15T02:16:19.352Z,24.03
2022-11-15T02:21:34.832Z,18.33
2022-11-15T02:27:10.092Z,24.50
2022-11-15T02:32:20.590Z,20.10
2022-11-15T02:37:31.998Z,23.23
2022-11-15T02:42:38.158Z,28.73
2022-11-15T02:47:44.634Z,27.33
2022-11-15T02:52:47.613Z,30.27
2022-11-15T02:57:56.844Z,25.93
2022-11-15T03:03:20.632Z,36.23
2022-11-15T03:08:32.610Z,33.20
2022-11-15T03:13:40.699Z,35.57
2022-11-15T03:18:47.360Z,30.57
2022-11-15T03:23:52.224Z,32.37
2022-11-15T03:28:58.853Z,38.70
2022-11-15T03:34:06.410Z,31.60
2022-11-15T03:39:10.198Z,31.50
2022-11-15T03:44:17.761Z,31.07
2022-11-15T03:49:26.978Z,31.60
2022-11-15T03:54:29.393Z,32.20
2022-11-15T03:59:31.679Z,31.67
2022-11-15T04:04:35.273Z,30.03
2022-11-15T04:09:37.134Z,30.10
2022-11-15T04:14:39.218Z,33.60
2022-11-15T04:19:42.807Z,36.33
2022-11-15T04:24:45.185Z,31.50
2022-11-15T04:29:47.494Z,36.67
2022-11-15T04:34:50.962Z,32.77
2022-11-15T04:39:53.095Z,33.53
2022-11-15T04:44:55.144Z,32.10
2022-11-15T04:49:58.695Z,29.93
2022-11-15T04:55:06.735Z,28.87
2022-11-15T05:00:14.100Z,27.93
2022-11-15T05:05:17.869Z,29.60
2022-11-15T05:10:20.143Z,28.43
2022-11-15T05:15:22.370Z,25.80
2022-11-15T05:20:25.709Z,23.47
2022-11-15T05:25:28.576Z,29.03
2022-11-15T05:30:31.567Z,24.70
2022-11-15T05:35:39.969Z,29.73
2022-11-15T05:40:42.236Z,29.90
2022-11-15T05:45:44.116Z,29.30
2022-11-15T05:50:48.693Z,30.17
2022-11-15T05:55:51.176Z,29.10
2022-11-15T06:00:53.128Z,30.13
2022-11-15T06:05:57.614Z,31.90
2022-11-15T06:11:04.955Z,25.50
2022-11-15T06:16:07.373Z,27.17
2022-11-15T06:21:10.785Z,25.03
2022-11-15T06:26:12.806Z,24.10
2022-11-15T06:31:15.115Z,28.10
2022-11-15T06:36:18.626Z,27.50
2022-11-15T06:41:20.731Z,26.40
2022-11-15T06:46:22.921Z,29.97
2022-11-15T06:51:26.451Z,25.13
2022-11-15T06:56:28.193Z,25.17
2022-11-15T07:01:30.656Z,30.90
2022-11-15T07:06:34.318Z,26.00
2022-11-15T07:11:36.569Z,33.63
2022-11-15T07:16:38.632Z,35.10
2022-11-15T07:21:42.162Z,25.60
2022-11-15T07:26:44.496Z,28.23
2022-11-15T07:31:46.644Z,31.43
2022-11-15T07:36:49.944Z,24.33
2022-11-15T07:41:51.948Z,35.63
2022-11-15T07:46:54.205Z,29.03
2022-11-15T07:51:57.567Z,30.80
2022-11-15T07:57:04.042Z,30.87
2022-11-15T08:02:10.531Z,29.77
2022-11-15T08:07:14.475Z,29.63
2022-11-15T08:12:16.649Z,32.10
2022-11-15T08:17:18.823Z,24.13
2022-11-15T08:22:22.519Z,23.90
2022-11-15T08:27:24.919Z,27.00
2022-11-15T08:32:27.109Z,28.33
2022-11-15T08:37:30.707Z,29.27
2022-11-15T08:42:32.458Z,28.70
2022-11-15T08:47:35.389Z,29.97
2022-11-15T08:52:38.848Z,32.87
2022-11-15T08:57:41.293Z,39.07
2022-11-15T09:02:43.397Z,33.00
2022-11-15T09:07:47.096Z,34.70
2022-11-15T09:12:49.361Z,29.00
2022-11-15T09:17:51.493Z,28.53
2022-11-15T09:22:55.003Z,29.90
2022-11-15T09:27:58.178Z,26.33
2022-11-15T09:33:00.336Z,20.43
2022-11-15T09:38:04.695Z,20.10
2022-11-15T09:43:21.175Z,20.97
2022-11-15T09:48:43.922Z,18.03
2022-11-15T09:59:26.018Z,13.40
2022-11-15T10:04:29.051Z,9.90
2022-11-15T10:09:39.209Z,12.53
2022-11-15T10:14:43.000Z,9.37
2022-11-15T10:19:56.570Z,8.23
2022-11-15T10:25:15.936Z,7.83
2022-11-15T10:30:19.651Z,8.27
2022-11-15T10:35:26.079Z,9.43
2022-11-15T10:40:29.605Z,7.40
2022-11-15T10:45:34.131Z,7.00
2022-11-15T10:50:35.805Z,6.97
2022-11-15T10:55:41.813Z,8.10
2022-11-15T11:00:43.856Z,8.47
2022-11-15T11:05:46.079Z,7.30
2022-11-15T11:11:01.339Z,7.87
2022-11-15T11:16:20.571Z,7.03
2022-11-15T11:21:36.778Z,7.17
2022-11-15T11:26:57.103Z,8.53
2022-11-15T11:32:08.976Z,10.10
2022-11-15T11:37:19.319Z,7.90
2022-11-15T11:42:34.944Z,10.10
2022-11-15T11:47:41.465Z,6.63
2022-11-15T11:52:54.021Z,7.87
2022-11-15T11:58:06.004Z,7.80
2022-11-15T12:03:13.910Z,10.33
2022-11-15T12:08:30.521Z,5.90
2022-11-15T12:13:35.947Z,8.50
2022-11-15T12:18:38.358Z,8.50
2022-11-15T12:23:45.171Z,10.27
2022-11-15T12:29:06.919Z,5.17
2022-11-15T12:34:41.671Z,7.17
2022-11-15T12:40:06.221Z,5.83
2022-11-15T12:45:27.751Z,5.17
2022-11-15T12:50:55.133Z,6.03
2022-11-15T12:56:19.093Z,4.97
2022-11-15T13:02:11.781Z,7.83
2022-11-15T13:07:58.781Z,10.07
2022-11-15T13:13:02.629Z,5.13
2022-11-15T13:18:41.235Z,4.97
2022-11-15T13:23:46.767Z,6.23
2022-11-15T13:28:50.866Z,5.60
2022-11-15T13:33:56.123Z,3.47
2022-11-15T13:39:03.080Z,4.53
2022-11-15T13:44:19.986Z,4.53
2022-11-15T13:49:30.967Z,5.47
2022-11-15T13:54:37.745Z,7.13
2022-11-15T13:59:47.719Z,4.83
2022-11-15T14:04:52.863Z,4.93
2022-11-15T14:09:56.389Z,4.03
2022-11-15T14:14:59.383Z,5.60
2022-11-15T14:20:01.907Z,6.20
2022-11-15T14:25:16.471Z,4.77
2022-11-15T14:30:19.097Z,5.53
2022-11-15T14:35:23.556Z,5.17
2022-11-15T14:40:27.454Z,5.83
2022-11-15T14:45:29.879Z,6.20
2022-11-15T14:50:34.034Z,7.43
2022-11-15T14:55:37.481Z,4.77
2022-11-15T15:00:41.863Z,6.43
2022-11-15T15:05:45.278Z,6.50
2022-11-15T15:10:48.975Z,5.57
2022-11-15T15:15:52.034Z,5.53
2022-11-15T15:20:57.338Z,7.37
2022-11-15T15:26:00.919Z,11.53
2022-11-15T15:31:03.092Z,9.67
2022-11-15T15:36:05.491Z,11.03
2022-11-15T15:41:11.961Z,10.20
2022-11-15T15:46:16.536Z,10.83
2022-11-15T15:51:20.693Z,12.63
2022-11-15T15:56:25.093Z,12.30
2022-11-15T16:01:27.535Z,12.17
2022-11-15T16:06:36.978Z,11.77
2022-11-15T16:11:40.511Z,11.97
2022-11-15T16:16:42.278Z,14.47
2022-11-15T16:21:44.377Z,14.80
2022-11-15T16:26:48.807Z,12.67
2022-11-15T16:31:50.907Z,13.63
2022-11-15T16:36:54.218Z,10.60
2022-11-15T16:41:57.685Z,12.67
2022-11-15T16:47:00.896Z,13.70
2022-11-15T16:52:02.600Z,11.93
2022-11-15T16:57:05.847Z,13.03
2022-11-15T17:02:12.172Z,16.30
2022-11-15T17:07:13.965Z,13.47
2022-11-15T17:12:17.109Z,12.50
2022-11-15T17:17:19.021Z,12.47
2022-11-15T17:22:21.242Z,12.80
2022-11-15T17:27:24.754Z,12.30
2022-11-15T17:32:26.743Z,12.70
2022-11-15T17:37:28.582Z,15.93
2022-11-15T17:42:32.017Z,15.97
2022-11-15T17:47:34.010Z,13.77
2022-11-15T17:52:35.723Z,14.13
2022-11-15T17:57:38.961Z,11.33
2022-11-15T18:02:40.976Z,14.37
2022-11-15T18:07:42.780Z,14.70
2022-11-15T18:12:45.844Z,14.17
2022-11-15T18:17:47.684Z,14.93
2022-11-15T18:22:52.545Z,13.87
2022-11-15T18:27:56.016Z,16.13
2022-11-15T18:32:58.227Z,12.13
2022-11-15T18:37:59.968Z,14.43
2022-11-15T18:43:03.804Z,16.57
2022-11-15T18:48:06.113Z,17.97
2022-11-15T18:53:07.925Z,20.23
2022-11-15T18:58:11.059Z,17.17
2022-11-15T19:03:12.864Z,18.40
2022-11-15T19:08:14.588Z,20.70
2022-11-15T19:13:18.414Z,19.63
2022-11-15T19:18:20.755Z,25.20
2022-11-15T19:23:23.156Z,19.77
2022-11-15T19:28:27.111Z,25.47
2022-11-15T19:33:28.785Z,25.77
2022-11-15T19:38:31.176Z,27.23
2022-11-15T19:43:35.580Z,26.13
2022-11-15T19:48:38.179Z,30.43
2022-11-15T19:53:40.703Z,32.23
2022-11-15T19:58:45.675Z,29.03
2022-11-15T20:03:48.177Z,30.17
2022-11-15T20:08:50.391Z,29.57
2022-11-15T20:13:56.455Z,31.10
2022-11-15T20:18:58.350Z,33.43
2022-11-15T20:24:00.267Z,33.97
2022-11-15T20:29:04.038Z,36.87
2022-11-15T20:34:06.696Z,31.77
2022-11-15T20:39:09.174Z,38.27
2022-11-15T20:44:13.020Z,34.43
2022-11-15T20:49:14.841Z,41.13
2022-11-15T20:54:16.910Z,43.40
2022-11-15T20:59:20.128Z,50.90
2022-11-15T21:04:23.438Z,42.53
2022-11-15T21:09:25.773Z,49.23
2022-11-15T21:14:29.202Z,56.57
2022-11-15T21:19:35.586Z,45.33
2022-11-15T21:24:39.053Z,50.33
2022-11-15T21:29:42.567Z,54.73
2022-11-15T21:34:44.692Z,45.70
2022-11-15T21:39:46.762Z,45.40
2022-11-15T21:44:50.513Z,50.03
2022-11-15T21:49:52.335Z,56.07
2022-11-15T21:54:54.374Z,45.23
2022-11-15T21:59:57.427Z,52.00
2022-11-15T22:04:59.773Z,66.27
2022-11-15T22:10:01.649Z,41.30
2022-11-15T22:15:05.783Z,45.43
2022-11-15T22:20:29.967Z,51.50
2022-11-15T22:25:31.181Z,61.60
2022-11-15T22:30:34.838Z,48.27
2022-11-15T22:35:38.417Z,47.23
2022-11-15T22:40:40.409Z,43.97
2022-11-15T22:45:52.134Z,71.33
2022-11-15T22:50:54.842Z,41.10
2022-11-15T22:55:58.553Z,44.00
2022-11-15T23:01:04.114Z,62.40
2022-11-15T23:06:07.665Z,66.10
2022-11-15T23:11:11.433Z,41.97
2022-11-15T23:16:14.890Z,49.13
2022-11-15T23:21:18.858Z,42.80
2022-11-15T23:26:21.483Z,57.10
2022-11-15T23:31:25.213Z,40.17
2022-11-15T23:36:29.033Z,37.67
2022-11-15T23:41:31.166Z,37.07
2022-11-15T23:46:35.197Z,46.83
2022-11-15T23:51:37.348Z,50.20
2022-11-15T23:56:39.878Z,50.23
